Time;durP1;ratioP1;P1;durP2;ratioP2;P2;SDS_P1;SDS_P2;PMS_P1;PMS_P2;Temp;Humidity;BMP_temperature;BMP_pressure;BME280_temperature;BME280_humidity;BME280_pressure;Samples;Min_cycle;Max_cycle;Signal;HPM_P1;HPM_P2
2023/05/26 00:02:24;;;;;;;4.60;4.20;;;;;;;;;;5139905;27;20206;-68
2023/05/26 00:04:52;;;;;;;5.05;4.10;;;;;;;;;;5139497;27;20202;-67
2023/05/26 00:07:21;;;;;;;4.55;4.15;;;;;;;;;;5139351;27;20202;-68
2023/05/26 00:09:49;;;;;;;4.32;3.92;;;;;;;;;;5139466;27;20229;-67
2023/05/26 00:12:16;;;;;;;4.00;3.70;;;;;;;;;;5139251;27;20226;-68
2023/05/26 00:14:46;;;;;;;4.00;3.70;;;;;;;;;;5139351;27;20209;-68
2023/05/26 00:17:13;;;;;;;4.13;3.83;;;;;;;;;;5139380;27;20203;-68
2023/05/26 00:19:41;;;;;;;4.40;4.00;;;;;;;;;;5139252;27;20571;-68
2023/05/26 00:22:10;;;;;;;4.03;3.72;;;;;;;;;;5139485;27;20489;-67
2023/05/26 00:24:39;;;;;;;4.40;3.80;;;;;;;;;;5139457;27;20518;-67
2023/05/26 00:27:07;;;;;;;4.40;4.10;;;;;;;;;;5139547;27;20221;-67
2023/05/26 00:29:37;;;;;;;4.20;3.90;;;;;;;;;;5139170;27;20332;-67
2023/05/26 00:32:04;;;;;;;4.20;3.80;;;;;;;;;;5139430;27;20226;-67
2023/05/26 00:34:33;;;;;;;4.57;4.18;;;;;;;;;;5139041;27;20202;-67
2023/05/26 00:37:01;;;;;;;4.35;4.03;;;;;;;;;;5138087;27;20593;-68
2023/05/26 00:39:29;;;;;;;4.32;3.92;;;;;;;;;;5138922;27;20209;-67
2023/05/26 00:41:58;;;;;;;4.43;4.03;;;;;;;;;;5138874;27;20202;-67
2023/05/26 00:44:25;;;;;;;4.55;4.15;;;;;;;;;;5138487;27;20590;-67
2023/05/26 00:46:53;;;;;;;4.50;4.10;;;;;;;;;;5138716;27;20202;-67
2023/05/26 00:49:21;;;;;;;4.68;4.28;;;;;;;;;;5138939;27;20202;-67
2023/05/26 00:51:48;;;;;;;4.40;4.00;;;;;;;;;;5138846;28;20225;-67
2023/05/26 00:54:16;;;;;;;4.60;4.05;;;;;;;;;;5138998;28;20206;-67
2023/05/26 00:56:45;;;;;;;4.15;3.85;;;;;;;;;;5138551;28;20667;-67
2023/05/26 00:59:15;;;;;;;5.00;4.50;;;;;;;;;;5138618;28;20209;-67
2023/05/26 01:01:43;;;;;;;4.30;4.00;;;;;;;;;;5139109;28;20198;-67
2023/05/26 01:04:11;;;;;;;4.78;4.18;;;;;;;;;;5138882;28;20206;-67
2023/05/26 01:06:38;;;;;;;4.18;3.83;;;;;;;;;;5138292;28;20305;-67
2023/05/26 01:09:06;;;;;;;4.72;4.13;;;;;;;;;;5138510;28;20213;-67
2023/05/26 01:11:36;;;;;;;4.78;4.38;;;;;;;;;;5138923;28;20253;-67
2023/05/26 01:14:07;;;;;;;4.55;4.20;;;;;;;;;;5138489;28;20261;-67
2023/05/26 01:16:39;;;;;;;4.82;4.43;;;;;;;;;;5138746;28;20582;-67
2023/05/26 01:19:13;;;;;;;4.38;3.97;;;;;;;;;;5138961;28;20202;-67
2023/05/26 01:21:42;;;;;;;4.63;4.22;;;;;;;;;;5138953;28;20297;-67
2023/05/26 01:24:14;;;;;;;4.82;4.35;;;;;;;;;;5138426;28;20217;-67
2023/05/26 01:26:54;;;;;;;4.18;3.88;;;;;;;;;;5138697;28;20574;-68
2023/05/26 01:29:24;;;;;;;4.57;4.18;;;;;;;;;;5138438;28;20242;-67
2023/05/26 01:31:51;;;;;;;4.30;3.90;;;;;;;;;;5138788;28;20218;-67
2023/05/26 01:34:18;;;;;;;4.50;4.10;;;;;;;;;;5138397;28;20229;-67
2023/05/26 01:36:46;;;;;;;4.53;4.15;;;;;;;;;;5138631;28;20202;-67
2023/05/26 01:39:13;;;;;;;4.72;4.32;;;;;;;;;;5138706;28;20214;-67
2023/05/26 01:41:43;;;;;;;4.68;4.28;;;;;;;;;;5138055;28;20224;-67
2023/05/26 01:44:14;;;;;;;4.40;4.10;;;;;;;;;;5138475;28;20249;-67
2023/05/26 01:46:46;;;;;;;4.30;4.00;;;;;;;;;;5138241;28;20202;-67
2023/05/26 01:49:15;;;;;;;4.30;3.90;;;;;;;;;;5138318;28;20267;-67
2023/05/26 01:51:44;;;;;;;4.63;4.22;;;;;;;;;;5138201;28;20508;-67
2023/05/26 01:54:13;;;;;;;4.70;4.30;;;;;;;;;;5138334;28;20575;-67
2023/05/26 01:56:41;;;;;;;4.95;4.55;;;;;;;;;;5140614;27;20238;-67
2023/05/26 01:59:09;;;;;;;4.43;4.03;;;;;;;;;;5142009;27;20202;-67
2023/05/26 02:01:37;;;;;;;5.00;4.40;;;;;;;;;;5141825;27;20206;-67
2023/05/26 02:04:06;;;;;;;4.80;4.35;;;;;;;;;;5142025;27;20203;-67
2023/05/26 02:06:34;;;;;;;4.57;4.15;;;;;;;;;;5141275;27;20534;-67
2023/05/26 02:09:01;;;;;;;5.18;4.15;;;;;;;;;;5141660;27;20207;-67
2023/05/26 02:11:29;;;;;;;4.30;3.90;;;;;;;;;;5141802;27;20252;-67
2023/05/26 02:13:57;;;;;;;4.38;4.00;;;;;;;;;;5141705;27;20267;-67
2023/05/26 02:16:24;;;;;;;4.15;3.78;;;;;;;;;;5141576;27;20202;-68
2023/05/26 02:18:52;;;;;;;4.80;4.40;;;;;;;;;;5141468;27;20210;-66
2023/05/26 02:21:21;;;;;;;4.68;4.28;;;;;;;;;;5141483;27;20252;-68
2023/05/26 02:23:49;;;;;;;4.90;4.50;;;;;;;;;;5141664;27;20209;-68
2023/05/26 02:26:17;;;;;;;4.75;4.35;;;;;;;;;;5141286;27;20210;-66
2023/05/26 02:28:44;;;;;;;4.75;4.35;;;;;;;;;;5141291;27;20245;-67
2023/05/26 02:31:12;;;;;;;4.30;3.90;;;;;;;;;;5141291;27;20214;-68
2023/05/26 02:33:41;;;;;;;4.93;4.53;;;;;;;;;;5141090;27;20209;-67
2023/05/26 02:36:11;;;;;;;4.65;4.22;;;;;;;;;;5141371;27;20202;-67
2023/05/26 02:38:40;;;;;;;5.00;4.60;;;;;;;;;;5141252;27;20206;-67
2023/05/26 02:41:07;;;;;;;4.38;3.97;;;;;;;;;;5141320;27;20217;-67
2023/05/26 02:43:35;;;;;;;4.53;4.13;;;;;;;;;;5141515;27;20209;-67
2023/05/26 02:46:03;;;;;;;4.45;4.05;;;;;;;;;;5140904;27;20202;-67
2023/05/26 02:48:30;;;;;;;4.45;4.15;;;;;;;;;;5140891;27;20202;-67
2023/05/26 02:50:59;;;;;;;5.05;4.55;;;;;;;;;;5140455;27;20259;-67
2023/05/26 02:53:26;;;;;;;4.45;4.13;;;;;;;;;;5140662;27;20226;-67
2023/05/26 02:55:56;;;;;;;5.30;4.75;;;;;;;;;;5141214;27;20198;-67
2023/05/26 02:58:23;;;;;;;4.90;4.50;;;;;;;;;;5141102;27;20567;-67
2023/05/26 03:00:52;;;;;;;4.70;4.35;;;;;;;;;;5140743;27;20202;-67
2023/05/26 03:03:21;;;;;;;4.68;4.28;;;;;;;;;;5140934;27;20202;-67
2023/05/26 03:05:48;;;;;;;4.60;4.20;;;;;;;;;;5140543;27;20206;-67
2023/05/26 03:08:16;;;;;;;4.22;3.92;;;;;;;;;;5139701;27;20202;-67
2023/05/26 03:10:43;;;;;;;5.07;4.68;;;;;;;;;;5140572;27;20237;-67
2023/05/26 03:13:12;;;;;;;4.72;4.32;;;;;;;;;;5140506;27;20226;-67
2023/05/26 03:15:42;;;;;;;4.63;4.15;;;;;;;;;;5140114;27;20209;-66
2023/05/26 03:18:10;;;;;;;4.65;4.25;;;;;;;;;;5140692;27;20263;-67
2023/05/26 03:20:38;;;;;;;4.78;4.30;;;;;;;;;;5140191;27;20574;-67
2023/05/26 03:23:06;;;;;;;4.53;4.13;;;;;;;;;;5140390;27;20206;-67
2023/05/26 03:25:33;;;;;;;4.50;4.10;;;;;;;;;;5140056;27;20206;-67
2023/05/26 03:28:01;;;;;;;4.20;3.90;;;;;;;;;;5139907;27;20582;-66
2023/05/26 03:30:30;;;;;;;4.70;4.30;;;;;;;;;;5140258;27;20202;-66
2023/05/26 03:32:58;;;;;;;4.45;4.05;;;;;;;;;;5140230;27;20226;-67
2023/05/26 03:35:25;;;;;;;4.55;4.15;;;;;;;;;;5139668;27;20202;-68
2023/05/26 03:37:53;;;;;;;4.68;4.28;;;;;;;;;;5139640;27;20232;-67
2023/05/26 03:40:21;;;;;;;4.60;4.20;;;;;;;;;;5139826;27;20210;-67
2023/05/26 03:42:48;;;;;;;5.40;4.65;;;;;;;;;;5139629;27;20202;-68
2023/05/26 03:45:16;;;;;;;4.85;4.45;;;;;;;;;;5139449;27;20214;-68
2023/05/26 03:47:45;;;;;;;4.43;4.03;;;;;;;;;;5139435;27;20554;-69
2023/05/26 03:50:12;;;;;;;4.70;4.30;;;;;;;;;;5139363;27;20203;-67
2023/05/26 03:52:40;;;;;;;4.47;4.07;;;;;;;;;;5138912;27;20516;-69
2023/05/26 03:55:09;;;;;;;4.45;4.00;;;;;;;;;;5138880;27;20194;-68
2023/05/26 03:57:37;;;;;;;3.90;3.60;;;;;;;;;;5139301;27;20212;-68
2023/05/26 04:00:07;;;;;;;4.25;3.85;;;;;;;;;;5139081;27;20582;-68
2023/05/26 04:02:35;;;;;;;4.32;3.92;;;;;;;;;;5138867;27;20209;-68
2023/05/26 04:05:04;;;;;;;4.32;3.90;;;;;;;;;;5138739;27;20202;-69
2023/05/26 04:07:31;;;;;;;4.60;4.20;;;;;;;;;;5138912;27;20206;-68
2023/05/26 04:09:59;;;;;;;4.20;3.80;;;;;;;;;;5138550;27;20202;-68
2023/05/26 04:12:27;;;;;;;4.05;3.67;;;;;;;;;;5138377;27;20225;-68
2023/05/26 04:14:54;;;;;;;4.45;4.13;;;;;;;;;;5138524;27;20274;-68
2023/05/26 04:17:21;;;;;;;4.40;4.00;;;;;;;;;;5138465;27;20226;-67
2023/05/26 04:19:49;;;;;;;4.80;4.35;;;;;;;;;;5137408;27;20213;-67
2023/05/26 04:22:18;;;;;;;4.57;4.18;;;;;;;;;;5138675;27;20289;-67
2023/05/26 04:24:45;;;;;;;5.03;4.40;;;;;;;;;;5138045;27;20596;-68
2023/05/26 04:27:13;;;;;;;4.78;4.35;;;;;;;;;;5138217;27;20198;-68
2023/05/26 04:29:40;;;;;;;4.72;4.32;;;;;;;;;;5137939;27;20234;-68
2023/05/26 04:32:08;;;;;;;4.93;4.50;;;;;;;;;;5137424;27;20329;-68
2023/05/26 04:34:37;;;;;;;4.60;4.20;;;;;;;;;;5137916;27;20376;-69
2023/05/26 04:37:05;;;;;;;5.07;4.68;;;;;;;;;;5137888;27;20202;-68
2023/05/26 04:39:34;;;;;;;4.85;4.45;;;;;;;;;;5137839;27;20210;-68
2023/05/26 04:42:03;;;;;;;5.35;4.85;;;;;;;;;;5137845;27;20272;-68
2023/05/26 04:44:30;;;;;;;5.55;5.05;;;;;;;;;;5136944;27;20206;-69
2023/05/26 04:47:00;;;;;;;4.97;4.57;;;;;;;;;;5137475;27;20282;-68
2023/05/26 04:49:29;;;;;;;5.45;4.97;;;;;;;;;;5137095;27;20226;-68
2023/05/26 04:51:57;;;;;;;5.53;5.03;;;;;;;;;;5136892;28;20209;-68
2023/05/26 04:54:25;;;;;;;5.40;4.90;;;;;;;;;;5137254;28;20267;-68
2023/05/26 04:56:54;;;;;;;4.90;4.50;;;;;;;;;;5137137;28;20198;-68
2023/05/26 04:59:22;;;;;;;5.25;4.85;;;;;;;;;;5136730;28;20203;-68
2023/05/26 05:01:49;;;;;;;5.00;4.47;;;;;;;;;;5135962;28;20194;-68
2023/05/26 05:04:17;;;;;;;5.05;4.65;;;;;;;;;;5136411;28;20198;-67
2023/05/26 05:06:45;;;;;;;5.82;5.32;;;;;;;;;;5136785;28;20506;-67
2023/05/26 05:09:12;;;;;;;5.85;5.35;;;;;;;;;;5134749;28;20202;-67
2023/05/26 05:11:40;;;;;;;5.10;4.70;;;;;;;;;;5136318;28;20210;-67
2023/05/26 05:14:09;;;;;;;5.70;5.20;;;;;;;;;;5136062;28;20237;-67
2023/05/26 05:16:36;;;;;;;5.45;4.95;;;;;;;;;;5136632;28;20194;-67
2023/05/26 05:19:03;;;;;;;6.00;5.47;;;;;;;;;;5135641;28;20209;-67
2023/05/26 05:21:31;;;;;;;5.45;4.95;;;;;;;;;;5135780;28;20202;-68
2023/05/26 05:23:58;;;;;;;5.90;5.35;;;;;;;;;;5136489;28;20582;-68
2023/05/26 05:26:25;;;;;;;5.70;5.20;;;;;;;;;;5135728;28;20209;-68
2023/05/26 05:28:53;;;;;;;5.22;4.72;;;;;;;;;;5135481;28;20234;-68
2023/05/26 05:31:22;;;;;;;5.97;5.47;;;;;;;;;;5137742;27;20484;-68
2023/05/26 05:33:49;;;;;;;6.63;6.03;;;;;;;;;;5139775;27;20241;-68
2023/05/26 05:36:16;;;;;;;5.55;5.13;;;;;;;;;;5139603;27;20237;-68
2023/05/26 05:38:43;;;;;;;6.30;5.72;;;;;;;;;;5139698;27;20228;-68
2023/05/26 05:41:11;;;;;;;6.03;5.47;;;;;;;;;;5139066;27;20198;-68
2023/05/26 05:43:38;;;;;;;6.30;5.75;;;;;;;;;;5139439;27;20267;-68
2023/05/26 05:46:06;;;;;;;5.97;5.47;;;;;;;;;;5140220;27;20206;-68
2023/05/26 05:48:34;;;;;;;6.03;5.53;;;;;;;;;;5139338;27;20202;-68
2023/05/26 05:51:02;;;;;;;7.00;6.30;;;;;;;;;;5139127;27;20495;-68
2023/05/26 05:53:29;;;;;;;6.20;5.65;;;;;;;;;;5139609;27;20608;-68
2023/05/26 05:55:56;;;;;;;6.20;5.60;;;;;;;;;;5138865;27;20202;-68
2023/05/26 05:58:24;;;;;;;6.53;5.90;;;;;;;;;;5138671;27;20214;-68
2023/05/26 06:00:51;;;;;;;6.53;5.93;;;;;;;;;;5139028;27;20202;-68
2023/05/26 06:03:19;;;;;;;6.80;6.15;;;;;;;;;;5138034;27;20644;-68
2023/05/26 06:05:47;;;;;;;6.60;6.00;;;;;;;;;;5139200;27;20202;-68
2023/05/26 06:08:15;;;;;;;7.35;6.55;;;;;;;;;;5139328;27;20202;-68
2023/05/26 06:10:42;;;;;;;7.05;6.03;;;;;;;;;;5139516;27;20209;-68
2023/05/26 06:13:10;;;;;;;8.05;6.63;;;;;;;;;;5138993;27;20217;-68
2023/05/26 06:15:37;;;;;;;7.07;6.47;;;;;;;;;;5139493;27;20210;-68
2023/05/26 06:18:05;;;;;;;6.57;5.97;;;;;;;;;;5138571;27;20605;-68
2023/05/26 06:20:33;;;;;;;6.72;6.13;;;;;;;;;;5139976;27;20194;-68
2023/05/26 06:23:01;;;;;;;6.10;5.60;;;;;;;;;;5139398;27;20212;-69
2023/05/26 06:25:29;;;;;;;6.57;5.97;;;;;;;;;;5139418;27;20301;-68
2023/05/26 06:27:56;;;;;;;6.10;5.53;;;;;;;;;;5137899;27;20213;-68
2023/05/26 06:30:24;;;;;;;6.25;5.28;;;;;;;;;;5139239;27;20194;-68
2023/05/26 06:32:51;;;;;;;5.75;5.25;;;;;;;;;;5138499;27;20263;-68
2023/05/26 06:35:18;;;;;;;5.50;5.00;;;;;;;;;;5139001;27;20246;-68
2023/05/26 06:37:46;;;;;;;5.70;5.20;;;;;;;;;;5139462;27;20240;-68
2023/05/26 06:40:15;;;;;;;5.72;5.10;;;;;;;;;;5138828;27;20631;-68
2023/05/26 06:42:43;;;;;;;4.90;4.50;;;;;;;;;;5137764;27;20220;-68
2023/05/26 06:45:10;;;;;;;6.00;4.82;;;;;;;;;;5138853;27;20210;-68
2023/05/26 06:47:38;;;;;;;7.18;6.40;;;;;;;;;;5138632;27;20202;-68
2023/05/26 06:50:05;;;;;;;5.78;5.28;;;;;;;;;;5138091;27;20198;-68
2023/05/26 06:52:33;;;;;;;5.43;4.93;;;;;;;;;;5138046;27;20229;-68
2023/05/26 06:55:00;;;;;;;5.80;5.00;;;;;;;;;;5138488;27;20206;-68
2023/05/26 06:57:29;;;;;;;6.18;5.53;;;;;;;;;;5138156;27;20194;-68
2023/05/26 06:59:56;;;;;;;5.28;4.78;;;;;;;;;;5139016;27;20198;-68
2023/05/26 07:02:24;;;;;;;5.53;5.03;;;;;;;;;;5139506;27;20199;-68
2023/05/26 07:04:51;;;;;;;5.78;5.15;;;;;;;;;;5138858;27;20263;-68
2023/05/26 07:07:18;;;;;;;8.95;5.70;;;;;;;;;;5139007;27;20202;-68
2023/05/26 07:09:46;;;;;;;6.38;4.93;;;;;;;;;;5139197;27;20213;-68
2023/05/26 07:12:13;;;;;;;6.05;4.95;;;;;;;;;;5138441;27;20195;-68
2023/05/26 07:14:42;;;;;;;5.60;4.95;;;;;;;;;;5138233;27;20232;-68
2023/05/26 07:17:10;;;;;;;7.03;5.50;;;;;;;;;;5138922;27;20206;-68
2023/05/26 07:19:37;;;;;;;5.55;5.05;;;;;;;;;;5138786;27;20209;-68
2023/05/26 07:22:05;;;;;;;5.82;5.10;;;;;;;;;;5137798;27;20194;-68
2023/05/26 07:24:32;;;;;;;7.93;5.40;;;;;;;;;;5138176;27;20199;-68
2023/05/26 07:27:00;;;;;;;5.45;4.90;;;;;;;;;;5138935;27;20202;-68
2023/05/26 07:29:27;;;;;;;5.50;4.93;;;;;;;;;;5138365;27;20237;-68
2023/05/26 07:31:56;;;;;;;7.07;5.25;;;;;;;;;;5138512;27;20268;-68
2023/05/26 07:34:23;;;;;;;6.43;5.25;;;;;;;;;;5138168;27;20226;-68
2023/05/26 07:36:51;;;;;;;5.47;4.57;;;;;;;;;;5138699;27;20209;-68
2023/05/26 07:39:18;;;;;;;6.25;4.97;;;;;;;;;;5138666;27;20213;-68
2023/05/26 07:41:46;;;;;;;5.43;4.40;;;;;;;;;;5138105;27;20252;-68
2023/05/26 07:44:13;;;;;;;5.82;4.97;;;;;;;;;;5138373;27;20570;-68
2023/05/26 07:46:40;;;;;;;5.70;5.00;;;;;;;;;;5138642;27;20214;-68
2023/05/26 07:49:09;;;;;;;5.38;4.88;;;;;;;;;;5138551;27;20201;-68
2023/05/26 07:51:37;;;;;;;7.05;5.68;;;;;;;;;;5138419;27;20203;-68
2023/05/26 07:54:06;;;;;;;6.35;5.00;;;;;;;;;;5137136;27;20222;-68
2023/05/26 07:56:33;;;;;;;6.95;5.90;;;;;;;;;;5137706;27;20206;-68
2023/05/26 07:59:00;;;;;;;7.35;5.63;;;;;;;;;;5137735;27;20693;-68
2023/05/26 08:01:27;;;;;;;6.38;5.10;;;;;;;;;;5137738;27;20213;-68
2023/05/26 08:03:56;;;;;;;5.70;5.03;;;;;;;;;;5137431;27;20578;-68
2023/05/26 08:06:24;;;;;;;5.78;5.18;;;;;;;;;;5137518;27;20245;-68
2023/05/26 08:08:52;;;;;;;6.68;5.90;;;;;;;;;;5137298;27;20195;-68
2023/05/26 08:11:20;;;;;;;5.97;5.07;;;;;;;;;;5136927;27;20198;-68
2023/05/26 08:13:48;;;;;;;5.20;4.70;;;;;;;;;;5136959;27;20237;-68
2023/05/26 08:16:16;;;;;;;7.38;6.07;;;;;;;;;;5137333;27;20213;-69
2023/05/26 08:18:43;;;;;;;7.85;6.35;;;;;;;;;;5136712;27;20202;-68
2023/05/26 08:21:10;;;;;;;7.90;6.00;;;;;;;;;;5137437;27;20491;-68
2023/05/26 08:23:40;;;;;;;9.77;7.00;;;;;;;;;;5136805;27;20206;-68
2023/05/26 08:26:08;;;;;;;6.68;5.63;;;;;;;;;;5137487;27;20202;-69
2023/05/26 08:28:35;;;;;;;5.80;5.30;;;;;;;;;;5136530;27;20234;-68
2023/05/26 08:31:03;;;;;;;6.65;4.97;;;;;;;;;;5136934;27;20237;-69
2023/05/26 08:33:30;;;;;;;5.93;5.20;;;;;;;;;;5136682;27;20217;-68
2023/05/26 08:35:58;;;;;;;6.10;5.07;;;;;;;;;;5136844;27;20487;-69
2023/05/26 08:38:25;;;;;;;7.30;5.50;;;;;;;;;;5137393;27;20210;-68
2023/05/26 08:40:57;;;;;;;5.97;5.43;;;;;;;;;;5136846;27;20194;-68
2023/05/26 08:43:28;;;;;;;6.00;5.40;;;;;;;;;;5136337;27;20202;-68
2023/05/26 08:45:57;;;;;;;5.85;5.25;;;;;;;;;;5136128;27;20479;-68
2023/05/26 08:48:24;;;;;;;6.78;5.90;;;;;;;;;;5136841;27;20213;-68
2023/05/26 08:50:54;;;;;;;5.82;5.22;;;;;;;;;;5136737;27;20202;-68
2023/05/26 08:53:23;;;;;;;6.32;5.22;;;;;;;;;;5136859;28;20573;-68
2023/05/26 08:55:50;;;;;;;5.75;5.25;;;;;;;;;;5136768;28;20309;-68
2023/05/26 08:58:20;;;;;;;6.43;5.68;;;;;;;;;;5136992;28;20198;-68
2023/05/26 09:00:48;;;;;;;8.25;5.57;;;;;;;;;;5136429;28;20202;-68
2023/05/26 09:03:15;;;;;;;6.25;5.65;;;;;;;;;;5136170;28;20276;-68
2023/05/26 09:05:43;;;;;;;6.72;5.97;;;;;;;;;;5136620;27;20485;-68
2023/05/26 09:08:13;;;;;;;8.80;6.30;;;;;;;;;;5140372;27;20206;-68
2023/05/26 09:10:41;;;;;;;9.77;6.78;;;;;;;;;;5139909;27;20789;-68
2023/05/26 09:13:09;;;;;;;6.82;5.28;;;;;;;;;;5140011;27;20203;-68
2023/05/26 09:15:39;;;;;;;7.30;6.00;;;;;;;;;;5140332;27;20312;-68
2023/05/26 09:18:07;;;;;;;6.65;5.63;;;;;;;;;;5140421;27;20213;-68
2023/05/26 09:20:35;;;;;;;7.40;6.07;;;;;;;;;;5140829;27;20198;-68
2023/05/26 09:23:02;;;;;;;6.03;5.30;;;;;;;;;;5139326;27;20194;-68
2023/05/26 09:25:31;;;;;;;6.28;5.53;;;;;;;;;;5140057;27;20570;-68
2023/05/26 09:28:02;;;;;;;7.72;5.60;;;;;;;;;;5140094;27;20206;-68
2023/05/26 09:30:30;;;;;;;6.63;5.35;;;;;;;;;;5140456;27;20213;-69
2023/05/26 09:32:59;;;;;;;6.68;5.38;;;;;;;;;;5140596;27;20664;-68
2023/05/26 09:35:26;;;;;;;5.45;4.90;;;;;;;;;;5140260;27;20214;-68
2023/05/26 09:37:56;;;;;;;7.28;5.15;;;;;;;;;;5140135;27;20625;-68
2023/05/26 09:40:24;;;;;;;6.15;4.93;;;;;;;;;;5139999;27;20298;-68
2023/05/26 09:42:53;;;;;;;6.78;4.50;;;;;;;;;;5139478;27;20617;-68
2023/05/26 09:45:20;;;;;;;6.28;4.90;;;;;;;;;;5139620;27;20194;-68
2023/05/26 09:47:52;;;;;;;6.03;4.57;;;;;;;;;;5139553;27;20202;-68
2023/05/26 09:50:21;;;;;;;7.75;4.88;;;;;;;;;;5139263;27;20206;-68
2023/05/26 09:52:50;;;;;;;5.65;4.45;;;;;;;;;;5139385;27;20481;-68
2023/05/26 09:55:17;;;;;;;5.82;4.78;;;;;;;;;;5138671;27;20222;-68
2023/05/26 09:57:46;;;;;;;5.88;4.30;;;;;;;;;;5138879;27;20202;-68
2023/05/26 10:00:16;;;;;;;6.25;4.78;;;;;;;;;;5139311;27;20237;-68
2023/05/26 10:02:44;;;;;;;4.60;4.03;;;;;;;;;;5139611;27;20209;-68
2023/05/26 10:05:11;;;;;;;6.32;4.28;;;;;;;;;;5139464;27;20659;-68
2023/05/26 10:07:42;;;;;;;6.32;4.63;;;;;;;;;;5138169;27;20194;-68
2023/05/26 10:10:10;;;;;;;7.78;4.57;;;;;;;;;;5137752;27;20626;-68
2023/05/26 10:12:37;;;;;;;7.47;5.05;;;;;;;;;;5138092;27;20198;-68
2023/05/26 10:15:05;;;;;;;6.32;4.13;;;;;;;;;;5137903;27;20229;-68
2023/05/26 10:17:33;;;;;;;6.28;4.18;;;;;;;;;;5136373;27;20199;-68
2023/05/26 10:20:01;;;;;;;7.35;4.50;;;;;;;;;;5138358;27;20608;-68
2023/05/26 10:22:30;;;;;;;7.25;4.40;;;;;;;;;;5138617;27;20490;-68
2023/05/26 10:25:00;;;;;;;4.35;3.88;;;;;;;;;;5138785;27;20194;-68
2023/05/26 10:27:30;;;;;;;6.13;4.10;;;;;;;;;;5138988;27;20224;-68
2023/05/26 10:30:01;;;;;;;6.88;4.30;;;;;;;;;;5138060;27;20233;-68
2023/05/26 10:32:45;;;;;;;5.57;3.88;;;;;;;;;;5138404;27;20209;-68
2023/05/26 10:35:26;;;;;;;8.60;4.60;;;;;;;;;;5136696;27;20266;-68
2023/05/26 10:37:55;;;;;;;6.45;4.10;;;;;;;;;;5137386;27;20201;-68
2023/05/26 10:40:28;;;;;;;6.50;4.30;;;;;;;;;;5137351;27;20210;-68
2023/05/26 10:42:58;;;;;;;6.85;4.30;;;;;;;;;;5137762;27;20203;-68
2023/05/26 10:45:26;;;;;;;5.70;4.13;;;;;;;;;;5138002;27;20210;-68
2023/05/26 10:47:59;;;;;;;6.13;3.90;;;;;;;;;;5136917;27;20210;-68
2023/05/26 10:50:27;;;;;;;7.25;4.32;;;;;;;;;;5137204;27;20267;-68
2023/05/26 10:52:55;;;;;;;5.68;4.10;;;;;;;;;;5137676;27;20194;-68
2023/05/26 10:55:45;;;;;;;5.63;4.03;;;;;;;;;;5136828;27;20321;-69
2023/05/26 10:58:27;;;;;;;7.55;4.40;;;;;;;;;;5136560;27;20213;-68
2023/05/26 11:00:56;;;;;;;7.35;4.28;;;;;;;;;;5137158;27;20201;-68
2023/05/26 11:03:33;;;;;;;9.85;4.28;;;;;;;;;;5137504;27;20202;-68
2023/05/26 11:06:00;;;;;;;5.88;4.30;;;;;;;;;;5137499;27;20298;-68
2023/05/26 11:08:28;;;;;;;7.85;4.30;;;;;;;;;;5138502;27;20206;-68
2023/05/26 11:11:02;;;;;;;7.30;4.65;;;;;;;;;;5136969;27;20471;-68
2023/05/26 11:13:42;;;;;;;7.85;4.50;;;;;;;;;;5137083;27;20270;-68
2023/05/26 11:16:13;;;;;;;8.23;4.50;;;;;;;;;;5136088;27;20222;-68
2023/05/26 11:18:41;;;;;;;7.45;4.22;;;;;;;;;;5137061;27;20209;-68
2023/05/26 11:21:09;;;;;;;8.50;4.75;;;;;;;;;;5136891;27;20210;-68
2023/05/26 11:23:38;;;;;;;6.30;3.95;;;;;;;;;;5135532;27;20458;-68
2023/05/26 11:26:13;;;;;;;7.80;4.35;;;;;;;;;;5136377;27;20255;-68
2023/05/26 11:28:47;;;;;;;7.53;4.22;;;;;;;;;;5136057;27;20226;-68
2023/05/26 11:31:15;;;;;;;8.77;4.13;;;;;;;;;;5136141;27;20201;-68
2023/05/26 11:33:43;;;;;;;7.15;4.18;;;;;;;;;;5136370;27;20217;-68
2023/05/26 11:36:11;;;;;;;7.35;4.15;;;;;;;;;;5136916;27;20229;-68
2023/05/26 11:38:39;;;;;;;9.13;4.45;;;;;;;;;;5136588;27;20810;-68
2023/05/26 11:41:06;;;;;;;5.32;3.75;;;;;;;;;;5136730;27;20199;-68
2023/05/26 11:43:35;;;;;;;6.82;4.65;;;;;;;;;;5136950;27;20201;-68
2023/05/26 11:46:03;;;;;;;6.72;4.32;;;;;;;;;;5136210;27;20763;-68
2023/05/26 11:48:36;;;;;;;8.30;4.25;;;;;;;;;;5135949;27;20194;-68
2023/05/26 11:51:07;;;;;;;6.47;4.05;;;;;;;;;;5136578;27;20237;-68
2023/05/26 11:53:34;;;;;;;7.25;3.83;;;;;;;;;;5136444;27;20591;-68
2023/05/26 11:56:03;;;;;;;7.78;4.30;;;;;;;;;;5136473;27;20225;-68
2023/05/26 11:58:30;;;;;;;7.13;3.95;;;;;;;;;;5136448;27;20633;-68
2023/05/26 12:01:01;;;;;;;8.85;4.60;;;;;;;;;;5136146;27;20208;-68
2023/05/26 12:03:28;;;;;;;7.90;4.25;;;;;;;;;;5136822;27;20202;-68
2023/05/26 12:06:06;;;;;;;7.20;4.15;;;;;;;;;;5136783;27;20194;-68
2023/05/26 12:08:43;;;;;;;9.38;3.70;;;;;;;;;;5136699;27;20201;-68
2023/05/26 12:11:13;;;;;;;7.03;3.88;;;;;;;;;;5137591;27;20511;-68
2023/05/26 12:13:41;;;;;;;8.05;4.25;;;;;;;;;;5136938;27;20582;-68
2023/05/26 12:16:20;;;;;;;7.32;3.90;;;;;;;;;;5136180;27;20652;-68
2023/05/26 12:18:47;;;;;;;9.13;4.40;;;;;;;;;;5135719;27;20270;-68
2023/05/26 12:21:15;;;;;;;6.93;3.70;;;;;;;;;;5135668;27;20274;-68
2023/05/26 12:23:42;;;;;;;7.63;4.15;;;;;;;;;;5135702;27;20238;-68
2023/05/26 12:26:16;;;;;;;6.78;3.90;;;;;;;;;;5135246;27;20194;-68
2023/05/26 12:28:44;;;;;;;7.93;3.78;;;;;;;;;;5135742;27;20311;-68
2023/05/26 12:31:11;;;;;;;7.30;4.20;;;;;;;;;;5136151;27;20208;-69
2023/05/26 12:33:40;;;;;;;6.45;3.90;;;;;;;;;;5135795;27;20212;-68
2023/05/26 12:36:08;;;;;;;5.97;4.05;;;;;;;;;;5135370;27;20792;-69
2023/05/26 12:38:44;;;;;;;5.93;3.70;;;;;;;;;;5136470;27;20612;-68
2023/05/26 12:41:12;;;;;;;6.32;3.40;;;;;;;;;;5134418;27;20209;-68
2023/05/26 12:43:39;;;;;;;5.85;3.38;;;;;;;;;;5135551;27;20205;-68
2023/05/26 12:46:07;;;;;;;6.50;3.30;;;;;;;;;;5135217;27;20209;-68
2023/05/26 12:48:34;;;;;;;6.55;3.78;;;;;;;;;;5134619;27;20495;-68
2023/05/26 12:51:03;;;;;;;4.88;3.40;;;;;;;;;;5134757;27;20475;-68
2023/05/26 12:53:30;;;;;;;5.55;3.78;;;;;;;;;;5135923;27;20198;-68
2023/05/26 12:55:58;;;;;;;4.93;3.20;;;;;;;;;;5135985;28;20300;-68
2023/05/26 12:58:25;;;;;;;6.75;3.63;;;;;;;;;;5135747;28;20220;-68
2023/05/26 13:00:53;;;;;;;6.70;3.35;;;;;;;;;;5135705;28;20273;-68
2023/05/26 13:03:23;;;;;;;5.35;3.40;;;;;;;;;;5135478;28;20235;-68
2023/05/26 13:05:51;;;;;;;7.18;3.42;;;;;;;;;;5118105;28;20194;-68
2023/05/26 13:08:21;;;;;;;5.18;3.10;;;;;;;;;;5134637;28;20233;-68
2023/05/26 13:10:48;;;;;;;4.30;2.90;;;;;;;;;;5135111;28;20244;-68
2023/05/26 13:13:16;;;;;;;6.93;3.63;;;;;;;;;;5134594;28;20206;-68
2023/05/26 13:15:43;;;;;;;5.03;2.85;;;;;;;;;;5135370;28;20226;-68
2023/05/26 13:18:10;;;;;;;6.55;3.60;;;;;;;;;;5135621;28;20194;-68
2023/05/26 13:20:38;;;;;;;5.25;3.10;;;;;;;;;;5134947;28;20198;-68
2023/05/26 13:23:05;;;;;;;4.68;2.78;;;;;;;;;;5134530;28;20198;-68
2023/05/26 13:25:34;;;;;;;5.05;2.67;;;;;;;;;;5135060;28;20622;-68
2023/05/26 13:28:01;;;;;;;5.40;3.10;;;;;;;;;;5135933;28;20209;-68
2023/05/26 13:30:29;;;;;;;6.55;2.95;;;;;;;;;;5135361;28;20198;-68
2023/05/26 13:32:57;;;;;;;5.22;2.85;;;;;;;;;;5134859;28;20202;-68
2023/05/26 13:35:24;;;;;;;5.78;3.10;;;;;;;;;;5135236;28;20229;-68
2023/05/26 13:37:53;;;;;;;3.78;2.80;;;;;;;;;;5135727;28;20221;-69
2023/05/26 13:40:21;;;;;;;5.15;2.60;;;;;;;;;;5135990;28;20198;-68
2023/05/26 13:42:50;;;;;;;5.75;3.08;;;;;;;;;;5135830;28;20202;-68
2023/05/26 13:45:18;;;;;;;5.13;3.13;;;;;;;;;;5135543;28;20305;-69
2023/05/26 13:47:45;;;;;;;6.32;2.92;;;;;;;;;;5135882;28;20582;-69
2023/05/26 13:50:13;;;;;;;4.85;2.78;;;;;;;;;;5134747;28;20203;-69
2023/05/26 13:52:41;;;;;;;5.55;3.05;;;;;;;;;;5137079;27;20194;-69
2023/05/26 13:55:09;;;;;;;6.32;3.00;;;;;;;;;;5138849;27;20225;-68
2023/05/26 13:57:37;;;;;;;4.53;2.67;;;;;;;;;;5138626;27;20285;-69
2023/05/26 14:00:06;;;;;;;5.43;2.90;;;;;;;;;;5138606;27;20275;-69
2023/05/26 14:02:34;;;;;;;6.97;2.83;;;;;;;;;;5139044;27;20335;-68
2023/05/26 14:05:01;;;;;;;3.72;2.67;;;;;;;;;;5138575;27;20441;-69
2023/05/26 14:07:29;;;;;;;5.65;2.95;;;;;;;;;;5138129;27;20208;-68
2023/05/26 14:09:56;;;;;;;5.32;3.08;;;;;;;;;;5138737;27;20570;-69
2023/05/26 14:12:23;;;;;;;5.75;3.00;;;;;;;;;;5139189;27;20205;-68
2023/05/26 14:14:51;;;;;;;6.03;3.00;;;;;;;;;;5137800;27;20205;-67
2023/05/26 14:17:20;;;;;;;5.25;3.30;;;;;;;;;;5137705;27;20221;-67
2023/05/26 14:19:48;;;;;;;5.05;3.10;;;;;;;;;;5138406;27;20725;-67
2023/05/26 14:22:16;;;;;;;4.10;2.80;;;;;;;;;;5138603;27;20198;-67
2023/05/26 14:24:43;;;;;;;7.18;3.45;;;;;;;;;;5139705;27;20210;-67
2023/05/26 14:27:11;;;;;;;5.57;2.95;;;;;;;;;;5139169;27;20198;-67
2023/05/26 14:29:38;;;;;;;5.65;3.40;;;;;;;;;;5138498;27;20230;-68
2023/05/26 14:32:06;;;;;;;6.70;2.92;;;;;;;;;;5139060;27;20202;-68
2023/05/26 14:34:35;;;;;;;6.53;3.33;;;;;;;;;;5138327;27;20210;-67
2023/05/26 14:37:02;;;;;;;6.78;2.95;;;;;;;;;;5138949;27;20646;-67
2023/05/26 14:39:29;;;;;;;6.55;3.00;;;;;;;;;;5138735;27;20203;-67
2023/05/26 14:41:57;;;;;;;6.32;3.08;;;;;;;;;;5138477;27;20195;-67
2023/05/26 14:44:24;;;;;;;5.57;2.92;;;;;;;;;;5139122;27;20206;-67
2023/05/26 14:46:52;;;;;;;6.63;2.90;;;;;;;;;;5138252;27;20194;-68
2023/05/26 14:49:19;;;;;;;4.18;2.80;;;;;;;;;;5138392;27;20578;-67
2023/05/26 14:51:49;;;;;;;6.97;2.92;;;;;;;;;;5137163;27;20579;-69